Terminal Aerodrome Forecast
Issued by NWS

Home | Current Version | Previous Version | Text Only | Print | Product List | Glossary On
Versions: 1 2 3 4 5 6 7 8 9 10 11 12 13 14 15 16 17 18
000
FTAK31 PAJN 171700 RRA
TAFAWG
TAF
PAWG 171743Z 1718/1818 29004KT 1/2SM FG VV003
     FM171900 30006KT P6SM FEW006 BKN025
     FM172100 30007KT P6SM VCSH FEW015 BKN035
     FM180300 VRB04KT P6SM BKN040 BKN200
     FM181200 12007KT P6SM VCSH SCT015 BKN050 OVC100
     FM181500 12012KT P6SM -RA SCT020 OVC050
      AMD LTD TO CLD VIS AND WIND 1806/1815=

USA.gov is the U.S. government's official web portal to all federal, state and local government web resources and services.